Terminal Aerodrome Forecast
Issued by NWS

Home | Current Version | Previous Version | Text Only | Print | Product List | Glossary On
Versions: 1 2 3 4 5 6 7 8 9 10 11 12 13 14
767
FTUS46 KMTR 261120
TAFOAK
TAF
KOAK 261120Z 2612/2718 24008KT P6SM VCSH BKN011 OVC018
     FM261600 24009KT P6SM VCSH BKN015 OVC022
     FM262100 27011KT P6SM BKN018 OVC024
     FM270200 28016G23KT P6SM FEW012 SCT020 SCT030
     FM270800 27010KT P6SM BKN012
     FM271500 27007KT P6SM SCT015=

USA.gov is the U.S. government's official web portal to all federal, state and local government web resources and services.